This demonstration page uses our WeatherBlox Daily Observations layout. Learn more.

36.17497, -115.13722

Hourly Observations for February 19, 2016

Temp ( °F °C ) Dew Point ( °F °C ) Humidity (%) Winds ( mph kmh ) Pressure ( in mb ) Visibility ( mi km ) Precip ( " mm )
12:53 am 00:53 Clear 50 10 25 -3.9 38 38 NNW 6 9 30.02 1017 10 16.0934 0 0
1:53 am 01:53 Clear 49 9.4 27 -2.8 43 43 WNW 6 9 30.04 1017 10 16.0934 0 0
2:53 am 02:53 Clear 49 9.4 26 -3.3 41 41 NW 5 7 30.04 1017 10 16.0934 0 0
3:53 am 03:53 Clear 48 8.9 27 -2.8 44 44 NNW 3 6 30.04 1017 10 16.0934 0 0
4:53 am 04:53 Clear 47 8.3 27 -2.8 46 46 NW 7 11 30.05 1018 10 16.0934 0 0
5:53 am 05:53 Clear 46 7.8 29 -1.7 51 51 Calm 30.06 1018 10 16.0934 0 0
6:53 am 06:53 Sunny 44 6.7 28 -2.2 53 53 NNW 3 6 30.08 1019 10 16.0934 0 0
7:53 am 07:53 Sunny 51 10.6 28 -2.2 41 41 N 8 13 30.1 1019 10 16.0934 0 0
8:53 am 08:53 Sunny 56 13.3 29 -1.7 36 36 Calm 30.11 1020 10 16.0934 0 0
9:53 am 09:53 Sunny 58 14.4 29 -1.7 33 33 ESE 3 6 30.11 1020 10 16.0934 0 0
10:53 am 10:53 Sunny 61 16.1 30 -1.1 31 31 SE 7 11 30.1 1019 10 16.0934 0 0
11:53 am 11:53 Sunny 63 17.2 31 -0.6 30 30 SE 8 13 30.08 1019 10 16.0934 0 0
12:53 pm 12:53 Sunny 67 19.4 31 -0.6 26 26 SE 8 13 30.05 1018 10 16.0934 0 0
1:53 pm 13:53 Sunny 69 20.6 29 -1.7 22 22 ESE 8 13 30.02 1017 10 16.0934 0 0
2:53 pm 14:53 Sunny 71 21.7 29 -1.7 21 21 E 10 17 30.01 1016 10 16.0934 0 0
3:53 pm 15:53 Sunny 73 22.8 14 -10 10 10 VRB 6 9 30 1016 10 16.0934 0 0
4:53 pm 16:53 Sunny 70 21.1 29 -1.7 22 22 NE 7 11 30.01 1016 10 16.0934 0 0
5:53 pm 17:53 Clear 67 19.4 33 0.6 28 28 NNE 8 13 30.02 1017 10 16.0934 0 0
6:53 pm 18:53 Clear 64 17.8 33 0.6 32 32 N 8 13 30.05 1018 10 16.0934 0 0
7:53 pm 19:53 Clear 61 16.1 28 -2.2 29 29 NNE 6 9 30.06 1018 10 16.0934 0 0
8:53 pm 20:53 Clear 60 15.6 28 -2.2 30 30 NNW 8 13 30.09 1019 10 16.0934 0 0
9:53 pm 21:53 Clear 60 15.6 30 -1.1 32 32 NNW 9 15 30.09 1019 10 16.0934 0 0
10:53 pm 22:53 Clear 58 14.4 30 -1.1 35 35 NNW 8 13 30.1 1019 10 16.0934 0 0
11:53 pm 23:53 Clear 55 12.8 30 -1.1 38 38 WNW 8 13 30.1 1019 10 16.0934 0 0

Powered by AerisWeather